Ketchikan, AK

9:21 AM AKST on February 25, 2017 (GMT -0900)
Berth 4 - The Cannery | | Change Station

Elev 13 ft 55.34 °N, 131.65 °W | Updated 3 minutes ago

Light Snow
Light Snow Mist
36.0 °F
Feels Like 36 °F
N
0.0
Wind Variable Wind from East
Gusts 0.0 mph

Today
High -- | Low -- °F
--% Chance of Precip.
Yesterday
High -- | Low -- °F
Precip. -- in
Pressure 30.02 in
Visibility 3.0 miles
Clouds Scattered Clouds 300 ft
Mostly Cloudy 1000 ft
Overcast 2600 ft
Windchill 36 °F
Dew Point 33 °F
Humidity 90%
Rainfall 0.00 in
Snow Depth Not available.
6:45 AM 5:14 PM
Waning Crescent, 1% visible
METAR PAKT 251753Z 16004KT 3SM -SN BR SCT003 BKN010 OVC026 01/01 A3001 RMK AO2 SLP164 HARBOR WND 10005KT P0001 60005 T00060006 10006 21006 56037 $
Pressure 30.02 in
Visibility 3.0 miles
Clouds Scattered Clouds 300 ft
Mostly Cloudy 1000 ft
Overcast 2600 ft
Windchill 36 °F
Dew Point 33 °F
Humidity 90%
Rainfall 0.00 in
Snow Depth Not available.
6:45 AM 5:14 PM
Waning Crescent, 1% visible
METAR PAKT 251753Z 16004KT 3SM -SN BR SCT003 BKN010 OVC026 01/01 A3001 RMK AO2 SLP164 HARBOR WND 10005KT P0001 60005 T00060006 10006 21006 56037 $

Get Your Daily Forecast Email!

Thanks for signing up!

Be on the lookout for a verification email in your inbox.

You'll start receiving the daily forecast at 8 AM.

×

10-Day Weather Forecast

Almanac

Astronomy

Feb. 25, 2017 Rise Set
Actual Time
Civil Twilight
Nautical Twilight
Astronomical Twilight
Moon
Length of Visible Light
Length of Day
Tomorrow will be .
, % of the Moon is Illuminated

Today's Extremes

State Highs State Lows

Community

WunderPhotos

Upload Photos

1,962,540 photos uploaded!

WunderBlog® & News

Nearby

Air Quality

  Air Quality AQ Index Pollutant
Not available.

Snow Depth

Station Depth Elevation

Earthquake Activity

City Distance Mag. Time & Date
Minimum magnitude displayed is 2.5.

Coastal Water Temperatures

Place Temperature

Stations

Nearby Weather Stations

Station Location Temp. Windchill Dew Point Humidity Wind Precip. Elev Updated Type
                   

Watches & Warnings

There are currently no watches in effect.